• Join FlightAware (Why Join?)
  • Login
  • US Flag 
08:45PM EDT


 

Airport Tracker/Info


-or-


 

Live Flight TrackerFlight Track Log ✈ ASA55 ✈ 17-May-2013 ✈ PABR / BRW - PANC

Flight Track Log - Related Links

Times and Time Zones

All times are in EDT time to prevent confusion due to time zone crossing. See the ASA55 flight status page for this flight to view local times or setup timezone preferences in your user account.

Time Position Orientation Groundspeed Altitude Reporting Facility
EDT Latitude Longitude Course Direction KTS MPH feet Rate Location/Type
03:01PM 71.1833 -156.6833 162° South 230 265 7,400  Level Anchorage Center
03:02PM 71.1167 -156.6167 162° South 250 288 10,500 2,400 Climbing Anchorage Center
03:03PM 71.0500 -156.5500 162° South 300 345 12,200 2,400 Climbing Anchorage Center
03:04PM 70.9667 -156.4667 162° South 310 357 15,400 3,060 Climbing Anchorage Center
03:05PM 70.8833 -156.4000 165° South 310 357 18,400 2,580 Climbing Anchorage Center
03:06PM 70.7181 -156.2034 162° South  Level Estimated
03:06PM 70.8000 -156.3167 162° South 330 380 20,600  Level Anchorage Center
03:07PM 70.6228 -156.1117 162° South  Level Estimated
03:07PM 70.7000 -156.2333 165° South 320 368 22,600  Level Anchorage Center
03:08PM 70.6167 -156.1500 162° South 340 391 24,400 1,800 Climbing Anchorage Center
03:09PM 70.5167 -156.0500 162° South 360 414 26,300 1,740 Climbing Anchorage Center
03:10PM 70.4167 -155.9667 164° South 380 437 27,900 1,560 Climbing Anchorage Center
03:11PM 70.3333 -155.8833 161° South 360 414 29,500 1,500 Climbing Anchorage Center
03:12PM 70.2167 -155.8000 166° South 380 437 31,000 720 Climbing Anchorage Center
03:13PM 70.1333 -155.7000 158° South 360 414 31,000  Level Anchorage Center
03:14PM 70.0333 -155.6167 164° South 360 414 31,000  Level Anchorage Center
03:15PM 69.9333 -155.5333 164° South 370 426 31,000  Level Anchorage Center
03:16PM 69.8333 -155.4500 164° South 370 426 31,000  Level Anchorage Center
03:17PM 69.7333 -155.3667 164° South 370 426 31,000  Level Anchorage Center
03:18PM 69.6333 -155.2833 164° South 370 426 31,000  Level Anchorage Center
03:19PM 69.5333 -155.2000 164° South 370 426 31,000  Level Anchorage Center
03:20PM 69.4333 -155.1167 164° South 360 414 31,000  Level Anchorage Center
03:21PM 69.3333 -155.0333 164° South 380 437 31,000  Level Anchorage Center
03:22PM 69.2500 -154.9667 164° South 370 426 31,000  Level Anchorage Center
03:23PM 69.1333 -154.8833 166° South 380 437 31,000  Level Anchorage Center
03:24PM 69.0500 -154.8167 164° South 380 437 31,000  Level Anchorage Center
03:25PM 68.9333 -154.7167 163° South 370 426 31,000  Level Anchorage Center
03:26PM 68.8333 -154.6500 166° South 370 426 31,000  Level Anchorage Center
03:27PM 68.7500 -154.6000 168° South 370 426 31,000  Level Anchorage Center
03:28PM 68.6333 -154.4833 160° South 360 414 31,000  Level Anchorage Center
03:29PM 68.5500 -154.4167 164° South 390 449 31,000  Level Anchorage Center
03:30PM 68.4500 -154.3333 163° South 360 414 31,000  Level Anchorage Center
03:31PM 68.3500 -154.2833 170° South 360 414 31,000  Level Anchorage Center
03:32PM 68.2667 -154.2000 160° South 370 426 31,000  Level Anchorage Center
03:33PM 68.1667 -154.1333 166° South 370 426 31,000  Level Anchorage Center
03:34PM 68.0667 -154.0500 163° South 370 426 31,000  Level Anchorage Center
03:35PM 67.9667 -153.9833 166° South 350 403 31,000  Level Anchorage Center
03:36PM 67.8667 -153.9167 166° South 370 426 31,000  Level Anchorage Center
03:37PM 67.7667 -153.8500 166° South 360 414 31,000  Level Anchorage Center
03:38PM 67.6667 -153.7833 166° South 360 414 31,000  Level Anchorage Center
03:39PM 67.5667 -153.7167 166° South 360 414 31,000  Level Anchorage Center
03:40PM 67.4833 -153.6500 163° South 360 414 31,000  Level Anchorage Center
03:41PM 67.3833 -153.5833 166° South 350 403 31,000  Level Anchorage Center
03:42PM 67.2833 -153.5167 166° South 370 426 31,000  Level Anchorage Center
03:43PM 67.1833 -153.4500 166° South 350 403 31,000  Level Anchorage Center
03:44PM 67.0833 -153.3833 165° South 360 414 31,000  Level Anchorage Center
03:45PM 67.0000 -153.3167 163° South 360 414 31,000  Level Anchorage Center
03:46PM 66.9000 -153.2500 165° South 350 403 31,000  Level Anchorage Center
03:47PM 66.8000 -153.2000 169° South 360 414 31,000  Level Anchorage Center
03:48PM 66.7000 -153.1333 165° South 360 414 31,000  Level Anchorage Center
03:49PM 66.6167 -153.0667 162° South 350 403 31,000  Level Anchorage Center
03:50PM 66.5167 -153.0167 169° South 340 391 31,000  Level Anchorage Center
03:51PM 66.4167 -152.9500 165° South 350 403 31,000  Level Anchorage Center
03:52PM 66.3167 -152.8833 165° South 360 414 31,000  Level Anchorage Center
03:53PM 66.2333 -152.8333 166° South 350 403 31,000  Level Anchorage Center
03:54PM 66.1333 -152.7667 165° South 350 403 31,000  Level Anchorage Center
03:55PM 66.0333 -152.7167 169° South 360 414 31,000  Level Anchorage Center
03:56PM 65.9333 -152.6500 165° South 350 403 31,000  Level Anchorage Center
03:57PM 65.8333 -152.6000 168° South 360 414 31,000  Level Anchorage Center
03:58PM 65.7500 -152.5333 162° South 350 403 31,000  Level Anchorage Center
03:59PM 65.6500 -152.4833 168° South 360 414 31,000  Level Anchorage Center
04:00PM 65.5500 -152.4167 165° South 350 403 31,000  Level Anchorage Center
04:01PM 65.4500 -152.3667 168° South 350 403 31,000  Level Anchorage Center
04:02PM 65.3667 -152.3167 166° South 360 414 31,000  Level Anchorage Center
04:03PM 65.2667 -152.2667 168° South 350 403 31,000  Level Anchorage Center
04:04PM 65.1667 -152.2000 164° South 350 403 31,000  Level Anchorage Center
04:05PM 65.0667 -152.1500 168° South 350 403 31,000  Level Anchorage Center
04:06PM 64.9833 -152.1000 166° South 350 403 31,000  Level Anchorage Center
04:07PM 64.8833 -152.0333 164° South 350 403 31,000  Level Anchorage Center
04:08PM 64.7833 -151.9833 168° South 360 414 31,000  Level Anchorage Center
04:09PM 64.6833 -151.9500 172° South 340 391 31,000  Level Anchorage Center
04:10PM 64.6000 -151.8833 161° South 350 403 31,000  Level Anchorage Center
04:12PM 64.5013 -151.8310 167° South  Level FlightAware Approximate
04:12PM 64.4000 -151.7833 167° South 360 414 31,000  Level Anchorage Center
04:13PM 64.3000 -151.7333 168° South 350 403 31,000  Level Anchorage Center
04:14PM 64.2000 -151.6833 168° South 360 414 31,000  Level Anchorage Center
04:15PM 64.1167 -151.6333 165° South 340 391 31,000  Level Anchorage Center
04:16PM 64.0167 -151.5833 168° South 360 414 31,000  Level Anchorage Center
04:17PM 63.9167 -151.5333 168° South 350 403 31,000  Level Anchorage Center
04:18PM 63.8167 -151.4833 168° South 360 414 31,000  Level Anchorage Center
04:19PM 63.7333 -151.4333 165° South 350 403 31,000  Level Anchorage Center
04:20PM 63.6333 -151.3833 167° South 340 391 31,000  Level Anchorage Center
04:21PM 63.5333 -151.3333 167° South 350 403 31,000  Level Anchorage Center
04:22PM 63.4333 -151.2833 167° South 340 391 31,000  Level Anchorage Center
04:23PM 63.3333 -151.2333 167° South 350 403 31,000  Level Anchorage Center
04:24PM 63.2500 -151.1833 165° South 340 391 31,000  Level Anchorage Center
04:25PM 63.1500 -151.1500 171° South 360 414 31,000  Level Anchorage Center
04:26PM 63.0333 -151.0833 165° South 380 437 31,000  Level Anchorage Center
04:27PM 62.9500 -151.0333 165° South 360 414 31,000  Level Anchorage Center
04:28PM 62.8500 -151.0000 171° South 350 403 31,000  Level Anchorage Center
04:29PM 62.7500 -150.9500 167° South 350 403 31,000  Level Anchorage Center
04:30PM 62.6500 -150.9000 167° South 350 403 31,000  Level Anchorage Center
04:31PM 62.5667 -150.8667 170° South 350 403 31,000 -780 Level Anchorage Center
04:32PM 62.4667 -150.8167 167° South 350 403 29,500 -1,980 Descending Anchorage Center
04:33PM 62.3667 -150.7667 167° South 330 380 27,100 -2,280 Descending Anchorage Center
04:34PM 62.2833 -150.7333 169° South 310 357 25,000 -2,160 Descending Anchorage Center
04:35PM 62.2167 -150.7000 167° South 300 345 22,800 -2,040 Descending Anchorage Center
04:37PM 62.1333 -150.6667 169° South 300 345 20,900 -2,040 Descending Anchorage Center
04:38PM 62.0500 -150.6167 164° South 310 357 18,800 -2,400 Descending Anchorage Center
04:39PM 61.9667 -150.5833 169° South 300 345 16,200 -2,100 Descending Anchorage Center
04:40PM 61.8833 -150.5500 169° South 290 334 14,700 -1,500 Descending Anchorage Center
04:41PM 61.7905 -150.5035 167° South  Level FlightAware Approximate
04:48PM 61.1799 -149.9632 154° Southeast  Level FlightAware Approximate
04:49PM 61.1667 -149.9833 270° West  Level FlightAware Approximate
04:50PM 61.1741 -149.9982 270° West  Level Estimated
04:51PM 61.1741 -149.9982 270° West  Level Estimated
04:52PM 61.1741 -149.9982 270° West  Level Estimated
04:53PM 61.1741 -149.9982 270° West  Level Estimated
04:54PM 61.1741 -149.9982 270° West  Level Estimated
04:55PM 61.1741 -149.9982 270° West  Level Estimated
04:56PM 61.1741 -149.9982 270° West  Level Estimated
04:57PM 61.1741 -149.9982 270° West  Level Estimated
04:58PM 61.1741 -149.9982 270° West  Level Estimated
04:59PM 61.1741 -149.9982 270° West  Level Estimated
05:00PM 61.1741 -149.9982 270° West  Level Estimated
05:01PM 61.1741 -149.9982 270° West  Level Estimated